createdAt,value
2019-02-16T00:02:10.791Z,20.10
2019-02-16T00:04:39.040Z,20.10
2019-02-16T00:07:07.263Z,20.10
2019-02-16T00:09:35.724Z,20.10
2019-02-16T00:12:04.209Z,20.10
2019-02-16T00:14:32.681Z,20.10
2019-02-16T00:17:00.904Z,20.10
2019-02-16T00:19:29.147Z,20.10
2019-02-16T00:21:57.608Z,20.00
2019-02-16T00:24:25.853Z,20.10
2019-02-16T00:26:54.091Z,20.10
2019-02-16T00:29:22.338Z,20.10
2019-02-16T00:31:50.816Z,20.10
2019-02-16T00:34:19.042Z,20.10
2019-02-16T00:36:47.276Z,20.10
2019-02-16T00:39:15.551Z,20.10
2019-02-16T00:41:43.804Z,20.10
2019-02-16T00:44:12.038Z,20.00
2019-02-16T00:46:40.515Z,20.00
2019-02-16T00:49:08.780Z,20.00
2019-02-16T00:51:37.230Z,20.00
2019-02-16T00:54:05.452Z,20.10
2019-02-16T00:56:33.699Z,20.00
2019-02-16T00:59:02.156Z,20.00
2019-02-16T01:01:30.559Z,20.10
2019-02-16T01:03:58.779Z,20.00
2019-02-16T01:06:27.021Z,20.00
2019-02-16T01:08:55.263Z,20.00
2019-02-16T01:11:23.484Z,20.00
2019-02-16T01:13:51.725Z,20.00
2019-02-16T01:16:19.973Z,20.00
2019-02-16T01:18:48.201Z,20.00
2019-02-16T01:21:22.464Z,20.00
2019-02-16T01:23:46.380Z,20.00
2019-02-16T01:26:14.628Z,19.90
2019-02-16T01:28:42.859Z,20.00
2019-02-16T01:31:11.340Z,20.00
2019-02-16T01:33:39.642Z,19.90
2019-02-16T01:36:07.860Z,20.00
2019-02-16T01:38:36.354Z,20.00
2019-02-16T01:41:04.572Z,19.90
2019-02-16T01:43:32.836Z,20.00
2019-02-16T01:46:01.043Z,19.90
2019-02-16T01:48:29.299Z,19.90
2019-02-16T01:50:57.534Z,19.90
2019-02-16T01:53:25.768Z,19.90
2019-02-16T01:55:54.005Z,19.90
2019-02-16T01:58:22.237Z,19.80
2019-02-16T02:00:50.721Z,19.90
2019-02-16T02:03:18.937Z,19.80
2019-02-16T02:05:47.493Z,19.80
2019-02-16T02:08:15.715Z,19.90
2019-02-16T02:10:43.944Z,19.80
2019-02-16T02:13:12.193Z,19.80
2019-02-16T02:15:40.654Z,19.80
2019-02-16T02:18:08.885Z,19.80
2019-02-16T02:20:37.126Z,19.80
2019-02-16T02:23:05.348Z,19.80
2019-02-16T02:25:33.607Z,19.80
2019-02-16T02:28:01.835Z,19.80
2019-02-16T02:30:30.057Z,19.80
2019-02-16T02:32:58.315Z,19.70
2019-02-16T02:35:26.524Z,19.70
2019-02-16T02:37:54.744Z,19.70
2019-02-16T02:40:23.000Z,19.70
2019-02-16T02:42:51.225Z,19.70
2019-02-16T02:45:19.463Z,19.70
2019-02-16T02:47:47.683Z,19.70
2019-02-16T02:50:15.924Z,19.70
2019-02-16T02:52:44.140Z,19.70
2019-02-16T02:55:12.387Z,19.70
2019-02-16T02:57:40.624Z,19.60
2019-02-16T03:00:09.738Z,19.60
2019-02-16T03:02:37.951Z,19.60
2019-02-16T03:05:07.936Z,19.60
2019-02-16T03:07:36.167Z,19.60
2019-02-16T03:10:05.432Z,19.60
2019-02-16T03:12:33.660Z,19.60
2019-02-16T03:15:02.135Z,19.60
2019-02-16T03:17:30.348Z,19.60
2019-02-16T03:19:58.817Z,19.60
2019-02-16T03:22:36.055Z,19.60
2019-02-16T03:25:05.282Z,19.60
2019-02-16T03:27:39.409Z,19.60
2019-02-16T03:30:16.040Z,19.60
2019-02-16T03:32:53.562Z,19.60
2019-02-16T03:35:34.118Z,19.60
2019-02-16T03:38:33.236Z,19.60
2019-02-16T03:41:01.474Z,19.60
2019-02-16T03:43:29.692Z,19.60
2019-02-16T03:45:57.945Z,19.60
2019-02-16T03:48:26.156Z,19.60
2019-02-16T03:50:54.409Z,19.60
2019-02-16T03:53:22.619Z,19.60
2019-02-16T03:55:50.860Z,19.60
2019-02-16T03:58:19.100Z,19.60
2019-02-16T04:00:47.334Z,19.60
2019-02-16T04:03:15.569Z,19.70
2019-02-16T04:05:43.800Z,19.70
2019-02-16T04:08:12.085Z,19.70
2019-02-16T04:10:40.348Z,19.70
2019-02-16T04:13:08.589Z,19.70
2019-02-16T04:15:36.886Z,19.70
2019-02-16T04:18:05.126Z,19.70
2019-02-16T04:20:33.335Z,19.70
2019-02-16T04:23:01.583Z,19.70
2019-02-16T04:25:29.833Z,19.70
2019-02-16T04:27:58.051Z,19.70
2019-02-16T04:30:26.271Z,19.70
2019-02-16T04:32:54.513Z,19.70
2019-02-16T04:35:22.752Z,19.70
2019-02-16T04:37:50.983Z,19.70
2019-02-16T04:40:19.250Z,19.60
2019-02-16T04:42:47.556Z,19.70
2019-02-16T04:45:15.781Z,19.70
2019-02-16T04:47:43.997Z,19.60
2019-02-16T04:50:12.239Z,19.60
2019-02-16T04:52:40.456Z,19.70
2019-02-16T04:55:08.678Z,19.60
2019-02-16T04:57:36.986Z,19.60
2019-02-16T05:00:06.049Z,19.60
2019-02-16T05:02:34.280Z,19.60
2019-02-16T05:05:02.525Z,19.60
2019-02-16T05:07:30.747Z,19.50
2019-02-16T05:09:58.982Z,19.50
2019-02-16T05:12:27.227Z,19.50
2019-02-16T05:14:55.448Z,19.50
2019-02-16T05:17:23.692Z,19.50
2019-02-16T05:19:51.928Z,19.50
2019-02-16T05:22:20.160Z,19.50
2019-02-16T05:24:48.380Z,19.40
2019-02-16T05:27:16.625Z,19.40
2019-02-16T05:29:44.864Z,19.40
2019-02-16T05:32:13.124Z,19.40
2019-02-16T05:34:41.579Z,19.40
2019-02-16T05:37:09.836Z,19.40
2019-02-16T05:39:38.040Z,19.40
2019-02-16T05:42:06.327Z,19.40
2019-02-16T05:44:34.586Z,19.40
2019-02-16T05:47:03.073Z,19.40
2019-02-16T05:49:31.396Z,19.40
2019-02-16T05:51:59.720Z,19.30
2019-02-16T05:54:28.206Z,19.30
2019-02-16T05:56:56.700Z,19.30
2019-02-16T05:59:24.924Z,19.30
2019-02-16T06:01:54.206Z,19.30
2019-02-16T06:04:22.741Z,19.30
2019-02-16T06:06:50.977Z,19.30
2019-02-16T06:09:19.216Z,19.30
2019-02-16T06:11:47.464Z,19.30
2019-02-16T06:14:15.699Z,19.30
2019-02-16T06:16:44.038Z,19.20
2019-02-16T06:19:12.325Z,19.20
2019-02-16T06:21:40.578Z,19.30
2019-02-16T06:24:08.794Z,19.30
2019-02-16T06:26:37.042Z,19.20
2019-02-16T06:29:05.264Z,19.20
2019-02-16T06:31:33.496Z,19.20
2019-02-16T06:34:01.749Z,19.30
2019-02-16T06:36:31.632Z,19.30
2019-02-16T06:38:59.864Z,19.30
2019-02-16T06:41:28.300Z,19.30
2019-02-16T06:43:56.518Z,19.30
2019-02-16T06:46:24.792Z,19.30
2019-02-16T06:48:53.044Z,19.30
2019-02-16T06:51:21.288Z,19.30
2019-02-16T06:53:49.803Z,19.30
2019-02-16T06:56:19.778Z,19.30
2019-02-16T06:58:48.027Z,19.30
2019-02-16T07:01:16.880Z,19.30
2019-02-16T07:03:45.103Z,19.30
2019-02-16T07:06:13.347Z,19.30
2019-02-16T07:08:41.585Z,19.30
2019-02-16T07:11:09.833Z,19.30
2019-02-16T07:13:38.733Z,19.30
2019-02-16T07:16:14.692Z,19.30
2019-02-16T07:18:50.347Z,19.30
2019-02-16T07:21:18.576Z,19.30
2019-02-16T07:23:46.853Z,19.30
2019-02-16T07:26:15.069Z,19.30
2019-02-16T07:28:43.529Z,19.30
2019-02-16T07:31:11.815Z,19.30
2019-02-16T07:33:40.057Z,19.30
2019-02-16T07:36:08.312Z,19.30
2019-02-16T07:38:36.824Z,19.30
2019-02-16T07:41:05.053Z,19.30
2019-02-16T07:43:40.896Z,19.30
2019-02-16T07:46:28.676Z,19.30
2019-02-16T07:49:01.700Z,19.30
2019-02-16T07:51:47.804Z,19.30
2019-02-16T07:54:29.581Z,19.40
2019-02-16T07:57:05.589Z,19.40
2019-02-16T07:59:41.152Z,19.40
2019-02-16T08:02:16.956Z,19.40
2019-02-16T08:04:46.812Z,19.40
2019-02-16T08:07:32.972Z,19.50
2019-02-16T08:10:02.883Z,19.60
2019-02-16T08:12:32.964Z,19.70
2019-02-16T08:15:05.632Z,19.80
2019-02-16T08:17:35.519Z,19.90
2019-02-16T08:20:17.671Z,20.00
2019-02-16T08:22:47.639Z,20.20
2019-02-16T08:25:20.428Z,20.20
2019-02-16T08:27:52.755Z,20.30
2019-02-16T08:30:22.632Z,20.40
2019-02-16T08:32:52.520Z,20.50
2019-02-16T08:35:22.379Z,20.60
2019-02-16T08:37:52.484Z,20.70
2019-02-16T08:40:28.113Z,20.70
2019-02-16T08:43:00.621Z,20.80
2019-02-16T08:45:39.327Z,20.90
2019-02-16T08:48:09.220Z,20.90
2019-02-16T08:50:44.609Z,21.00
2019-02-16T08:53:14.528Z,21.10
2019-02-16T08:55:59.140Z,21.10
2019-02-16T08:58:38.104Z,21.20
2019-02-16T09:01:07.976Z,21.20
2019-02-16T09:03:40.756Z,21.20
2019-02-16T09:06:10.655Z,21.30
2019-02-16T09:08:46.825Z,21.30
2019-02-16T09:11:33.016Z,21.30
2019-02-16T09:14:18.879Z,21.30
2019-02-16T09:16:48.900Z,21.40
2019-02-16T09:19:35.011Z,21.40
2019-02-16T09:22:22.973Z,21.50
2019-02-16T09:24:55.871Z,21.50
2019-02-16T09:27:34.317Z,21.60
2019-02-16T09:30:20.523Z,21.60
2019-02-16T09:32:53.076Z,21.60
2019-02-16T09:35:25.890Z,21.70
2019-02-16T09:37:55.786Z,21.70
2019-02-16T09:40:34.561Z,21.70
2019-02-16T09:43:10.231Z,21.80
2019-02-16T09:45:40.378Z,21.80
2019-02-16T09:48:22.056Z,21.80
2019-02-16T09:50:51.948Z,21.80
2019-02-16T09:53:27.973Z,21.90
2019-02-16T09:56:06.916Z,21.90
2019-02-16T09:58:48.603Z,21.90
2019-02-16T10:01:18.505Z,21.90
2019-02-16T10:03:48.482Z,21.70
2019-02-16T10:06:21.305Z,21.80
2019-02-16T10:08:53.996Z,21.90
2019-02-16T10:11:23.869Z,22.00
2019-02-16T10:13:59.885Z,22.00
2019-02-16T10:16:46.407Z,22.10
2019-02-16T10:19:28.503Z,22.10
2019-02-16T10:22:16.236Z,22.20
2019-02-16T10:24:58.079Z,22.20
2019-02-16T10:27:27.931Z,22.30
2019-02-16T10:30:00.496Z,22.30
2019-02-16T10:32:36.432Z,22.40
2019-02-16T10:35:06.836Z,22.40
2019-02-16T10:37:52.742Z,22.40
2019-02-16T10:40:28.655Z,22.50
2019-02-16T10:42:58.610Z,22.50
2019-02-16T10:45:44.963Z,22.60
2019-02-16T10:48:14.832Z,22.60
2019-02-16T10:50:44.958Z,22.70
2019-02-16T10:53:26.944Z,22.80
2019-02-16T10:55:56.823Z,22.80
2019-02-16T10:58:26.707Z,22.80
2019-02-16T11:01:05.648Z,22.90
2019-02-16T11:03:41.505Z,22.90
2019-02-16T11:06:17.748Z,23.00
2019-02-16T11:08:47.646Z,23.00
2019-02-16T11:11:18.565Z,23.10
2019-02-16T11:13:48.832Z,23.20
2019-02-16T11:16:28.644Z,23.20
2019-02-16T11:18:58.672Z,23.20
2019-02-16T11:21:31.344Z,23.30
2019-02-16T11:24:08.001Z,23.30
2019-02-16T11:26:40.901Z,23.30
2019-02-16T11:29:25.957Z,23.30
2019-02-16T11:31:58.835Z,23.30
2019-02-16T11:34:46.894Z,23.30
2019-02-16T11:37:17.292Z,23.30
2019-02-16T11:39:47.249Z,23.40
2019-02-16T11:42:33.383Z,23.50
2019-02-16T11:45:12.216Z,23.50
2019-02-16T11:47:50.872Z,23.50
2019-02-16T11:50:20.770Z,23.50
2019-02-16T11:52:53.302Z,23.50
2019-02-16T11:55:32.206Z,23.50
2019-02-16T11:58:19.852Z,23.60
2019-02-16T12:00:58.517Z,23.50
2019-02-16T12:03:28.637Z,23.60
2019-02-16T12:06:04.263Z,23.60
2019-02-16T12:08:39.916Z,23.50
2019-02-16T12:11:25.857Z,23.60
2019-02-16T12:13:58.914Z,23.60
2019-02-16T12:16:28.816Z,23.70
2019-02-16T12:19:04.406Z,23.70
2019-02-16T12:21:46.612Z,23.70
2019-02-16T12:24:16.575Z,23.70
2019-02-16T12:26:46.470Z,23.80
2019-02-16T12:29:16.353Z,23.80
2019-02-16T12:31:55.556Z,23.80
2019-02-16T12:34:31.833Z,23.70
2019-02-16T12:37:05.033Z,23.70
2019-02-16T12:39:51.167Z,23.80
2019-02-16T12:42:36.276Z,23.80
2019-02-16T12:45:06.505Z,23.70
2019-02-16T12:47:42.247Z,23.40
2019-02-16T12:50:28.372Z,23.70
2019-02-16T12:53:10.239Z,23.80
2019-02-16T12:55:46.048Z,24.10
2019-02-16T12:58:15.916Z,24.40
2019-02-16T13:00:51.808Z,25.00
2019-02-16T13:03:30.470Z,25.50
2019-02-16T13:06:03.299Z,25.90
2019-02-16T13:08:33.214Z,26.40
2019-02-16T13:11:05.824Z,26.80
2019-02-16T13:13:38.612Z,26.90
2019-02-16T13:16:20.456Z,27.00
2019-02-16T13:18:50.319Z,27.50
2019-02-16T13:21:20.240Z,27.70
2019-02-16T13:23:56.172Z,28.00
2019-02-16T13:26:38.248Z,28.30
2019-02-16T13:29:24.468Z,28.40
2019-02-16T13:31:57.065Z,28.80
2019-02-16T13:34:36.071Z,28.60
2019-02-16T13:37:21.056Z,28.90
2019-02-16T13:39:59.897Z,29.00
2019-02-16T13:42:32.516Z,29.10
2019-02-16T13:45:08.532Z,29.30
2019-02-16T13:47:38.420Z,29.50
2019-02-16T13:50:08.598Z,29.40
2019-02-16T13:52:38.491Z,29.30
2019-02-16T13:55:11.290Z,29.20
2019-02-16T13:57:52.934Z,28.60
2019-02-16T14:00:22.797Z,27.80
2019-02-16T14:02:52.700Z,27.10
2019-02-16T14:05:28.540Z,26.50
2019-02-16T14:07:58.499Z,26.00
2019-02-16T14:10:34.579Z,25.40
2019-02-16T14:13:10.547Z,25.10
2019-02-16T14:15:40.470Z,25.00
2019-02-16T14:18:08.759Z,24.90
2019-02-16T14:20:38.681Z,24.80
2019-02-16T14:23:07.106Z,24.60
2019-02-16T14:25:43.678Z,24.60
2019-02-16T14:28:06.955Z,24.50
2019-02-16T14:30:35.515Z,24.40
2019-02-16T14:33:03.972Z,24.30
2019-02-16T14:35:32.201Z,24.30
2019-02-16T14:38:02.112Z,24.20
2019-02-16T14:40:30.936Z,24.10
2019-02-16T14:42:59.243Z,24.10
2019-02-16T14:45:27.761Z,24.00
2019-02-16T14:47:56.030Z,23.90
2019-02-16T14:50:24.248Z,23.90
2019-02-16T14:52:52.525Z,23.80
2019-02-16T14:55:20.753Z,23.60
2019-02-16T14:57:49.011Z,23.60
2019-02-16T15:00:17.242Z,23.60
2019-02-16T15:02:45.522Z,23.60
2019-02-16T15:05:13.802Z,23.60
2019-02-16T15:07:42.117Z,23.60
2019-02-16T15:10:11.811Z,23.40
2019-02-16T15:12:40.063Z,23.40
2019-02-16T15:15:09.676Z,23.40
2019-02-16T15:17:37.956Z,23.50
2019-02-16T15:20:16.834Z,23.40
2019-02-16T15:22:45.099Z,23.40
2019-02-16T15:25:13.796Z,23.40
2019-02-16T15:27:42.044Z,23.50
2019-02-16T15:30:14.222Z,23.40
2019-02-16T15:32:42.280Z,23.40
2019-02-16T15:35:11.148Z,23.40
2019-02-16T15:37:39.392Z,23.40
2019-02-16T15:40:09.548Z,23.50
2019-02-16T15:42:37.830Z,23.50
2019-02-16T15:45:13.525Z,23.50
2019-02-16T15:47:41.752Z,23.50
2019-02-16T15:50:14.356Z,23.50
2019-02-16T15:52:42.606Z,23.50
2019-02-16T15:55:11.866Z,23.40
2019-02-16T15:57:40.351Z,23.40
2019-02-16T16:00:13.324Z,23.50
2019-02-16T16:02:41.589Z,23.50
2019-02-16T16:05:09.929Z,23.40
2019-02-16T16:07:39.239Z,23.40
2019-02-16T16:10:09.467Z,23.40
2019-02-16T16:12:57.452Z,23.50
2019-02-16T16:15:44.853Z,23.40
2019-02-16T16:18:14.860Z,23.30
2019-02-16T16:20:50.940Z,23.30
2019-02-16T16:23:20.828Z,23.30
2019-02-16T16:25:50.691Z,23.30
2019-02-16T16:28:23.534Z,23.20
2019-02-16T16:31:11.462Z,23.20
2019-02-16T16:33:49.851Z,23.10
2019-02-16T16:36:28.932Z,23.10
2019-02-16T16:39:01.522Z,23.00
2019-02-16T16:41:37.212Z,23.00
2019-02-16T16:44:21.963Z,23.00
2019-02-16T16:47:08.100Z,22.90
2019-02-16T16:49:40.997Z,22.90
2019-02-16T16:52:19.750Z,22.80
2019-02-16T16:54:58.756Z,22.80
2019-02-16T16:57:28.661Z,22.80
2019-02-16T17:00:01.424Z,22.80
2019-02-16T17:02:40.136Z,22.90
2019-02-16T17:05:21.832Z,22.80
2019-02-16T17:08:06.752Z,22.70
2019-02-16T17:10:39.499Z,22.70
2019-02-16T17:13:27.225Z,22.60
2019-02-16T17:16:08.864Z,22.50
2019-02-16T17:18:44.412Z,22.60
2019-02-16T17:21:14.305Z,22.50
2019-02-16T17:23:47.020Z,22.40
2019-02-16T17:26:37.686Z,22.40
2019-02-16T17:29:03.588Z,22.30
2019-02-16T17:31:48.751Z,22.20
2019-02-16T17:34:18.619Z,22.20
2019-02-16T17:36:48.519Z,22.20
2019-02-16T17:39:21.085Z,22.10
2019-02-16T17:41:53.900Z,22.10
2019-02-16T17:44:23.996Z,22.00
2019-02-16T17:47:08.668Z,22.00
2019-02-16T17:49:55.244Z,22.00
2019-02-16T17:52:30.719Z,21.90
2019-02-16T17:55:16.704Z,21.80
2019-02-16T17:57:55.883Z,21.80
2019-02-16T18:00:44.122Z,21.80
2019-02-16T18:03:20.003Z,21.70
2019-02-16T18:05:58.603Z,21.70
2019-02-16T18:08:34.564Z,21.70
2019-02-16T18:11:19.332Z,21.70
2019-02-16T18:13:51.852Z,21.70
2019-02-16T18:16:32.322Z,21.70
2019-02-16T18:19:08.162Z,21.70
2019-02-16T18:21:38.060Z,21.70
2019-02-16T18:24:07.930Z,21.70
2019-02-16T18:26:40.179Z,21.80
2019-02-16T18:29:10.059Z,21.80
2019-02-16T18:31:55.045Z,21.80
2019-02-16T18:34:30.901Z,21.80
2019-02-16T18:37:00.906Z,21.90
2019-02-16T18:39:39.909Z,21.90
2019-02-16T18:42:12.709Z,22.00
2019-02-16T18:44:42.624Z,22.00
2019-02-16T18:47:15.443Z,22.00
2019-02-16T18:49:48.468Z,22.00
2019-02-16T18:52:21.071Z,22.10
2019-02-16T18:54:50.956Z,22.10
2019-02-16T18:57:23.533Z,22.10
2019-02-16T19:00:03.241Z,22.10
2019-02-16T19:02:36.267Z,22.10
2019-02-16T19:05:12.929Z,22.10
2019-02-16T19:07:54.901Z,22.10
2019-02-16T19:10:24.759Z,22.20
2019-02-16T19:13:06.708Z,22.20
2019-02-16T19:15:42.484Z,22.20
2019-02-16T19:18:12.374Z,22.20
2019-02-16T19:20:42.260Z,22.20
2019-02-16T19:23:12.202Z,22.20
2019-02-16T19:25:42.069Z,22.30
2019-02-16T19:28:11.971Z,22.20
2019-02-16T19:30:50.625Z,22.30
2019-02-16T19:33:36.512Z,22.30
2019-02-16T19:36:18.555Z,22.40
2019-02-16T19:38:51.391Z,22.40
2019-02-16T19:41:21.253Z,22.40
2019-02-16T19:44:05.856Z,22.40
2019-02-16T19:46:38.392Z,22.50
2019-02-16T19:49:08.238Z,22.50
2019-02-16T19:51:49.930Z,22.50
2019-02-16T19:54:25.444Z,22.60
2019-02-16T19:56:55.324Z,22.50
2019-02-16T19:59:31.344Z,22.60
2019-02-16T20:02:13.406Z,22.60
2019-02-16T20:04:43.290Z,22.70
2019-02-16T20:07:28.084Z,22.80
2019-02-16T20:09:57.988Z,22.80
2019-02-16T20:12:39.822Z,22.80
2019-02-16T20:15:09.725Z,22.90
2019-02-16T20:17:39.605Z,23.00
2019-02-16T20:20:27.660Z,23.00
2019-02-16T20:22:57.528Z,23.10
2019-02-16T20:25:33.196Z,23.10
2019-02-16T20:28:05.791Z,23.30
2019-02-16T20:30:59.416Z,23.30
2019-02-16T20:33:31.861Z,23.40
2019-02-16T20:36:04.414Z,23.40
2019-02-16T20:38:40.284Z,23.40
2019-02-16T20:41:22.119Z,23.50
2019-02-16T20:43:57.689Z,23.50
2019-02-16T20:46:36.380Z,23.60
2019-02-16T20:49:06.251Z,23.70
2019-02-16T20:51:36.132Z,23.70
2019-02-16T20:54:24.212Z,23.80
2019-02-16T20:56:56.729Z,23.90
2019-02-16T20:59:26.863Z,24.00
2019-02-16T21:02:08.691Z,24.10
2019-02-16T21:04:38.545Z,24.30
2019-02-16T21:07:20.210Z,24.40
2019-02-16T21:09:55.804Z,24.40
2019-02-16T21:12:25.685Z,24.60
2019-02-16T21:14:55.646Z,24.60
2019-02-16T21:17:28.176Z,24.70
2019-02-16T21:19:58.060Z,24.80
2019-02-16T21:22:37.047Z,24.90
2019-02-16T21:25:07.675Z,24.90
2019-02-16T21:27:37.625Z,25.00
2019-02-16T21:30:10.260Z,25.10
2019-02-16T21:32:40.156Z,25.30
2019-02-16T21:35:15.996Z,25.30
2019-02-16T21:38:00.701Z,25.30
2019-02-16T21:40:33.525Z,25.30
2019-02-16T21:43:06.395Z,25.40
2019-02-16T21:45:36.255Z,25.50
2019-02-16T21:48:09.084Z,25.50
2019-02-16T21:50:54.096Z,25.60
2019-02-16T21:53:23.993Z,25.70
2019-02-16T21:55:53.860Z,25.70
2019-02-16T21:58:29.828Z,25.80
2019-02-16T22:01:02.615Z,25.90
2019-02-16T22:03:41.318Z,26.00
2019-02-16T22:06:23.062Z,26.00
2019-02-16T22:08:59.000Z,26.10
2019-02-16T22:11:28.882Z,26.10
2019-02-16T22:13:57.141Z,26.30
2019-02-16T22:16:25.397Z,26.40
2019-02-16T22:18:53.624Z,26.40
2019-02-16T22:21:21.858Z,26.50
2019-02-16T22:23:50.110Z,26.60
2019-02-16T22:26:18.350Z,26.50
2019-02-16T22:28:46.600Z,26.70
2019-02-16T22:31:14.827Z,26.80
2019-02-16T22:33:43.079Z,26.80
2019-02-16T22:36:11.320Z,26.90
2019-02-16T22:38:39.540Z,27.10
2019-02-16T22:41:07.755Z,27.20
2019-02-16T22:43:36.004Z,27.20
2019-02-16T22:46:04.492Z,27.40
2019-02-16T22:48:32.715Z,27.40
2019-02-16T22:51:00.964Z,27.30
2019-02-16T22:53:29.193Z,27.50
2019-02-16T22:55:57.431Z,27.60
2019-02-16T22:58:28.953Z,27.80
2019-02-16T23:00:55.652Z,27.90
2019-02-16T23:03:23.876Z,27.90
2019-02-16T23:05:52.101Z,28.00
2019-02-16T23:08:20.368Z,28.10
2019-02-16T23:10:48.573Z,28.20
2019-02-16T23:13:16.811Z,28.30
2019-02-16T23:15:45.090Z,28.40
2019-02-16T23:18:13.312Z,28.50
2019-02-16T23:20:41.534Z,28.60
2019-02-16T23:23:09.784Z,28.70
2019-02-16T23:25:38.013Z,28.80
2019-02-16T23:28:06.501Z,28.90
2019-02-16T23:30:34.739Z,29.00
2019-02-16T23:33:02.971Z,29.00
2019-02-16T23:35:31.444Z,29.00
2019-02-16T23:37:59.667Z,29.00
2019-02-16T23:40:27.908Z,29.10
2019-02-16T23:42:56.159Z,29.20
2019-02-16T23:45:24.384Z,29.20
2019-02-16T23:47:52.628Z,29.30
2019-02-16T23:50:20.860Z,29.30
2019-02-16T23:52:49.100Z,29.20
2019-02-16T23:55:17.331Z,29.30
2019-02-16T23:57:45.585Z,29.30
